Time;durP1;ratioP1;P1;durP2;ratioP2;P2;SDS_P1;SDS_P2;PMS_P1;PMS_P2;Temp;Humidity;BMP_temperature;BMP_pressure;BME280_temperature;BME280_humidity;BME280_pressure;Samples;Min_cycle;Max_cycle;Signal;HPM_P1;HPM_P2
2022/03/08 00:00:29;;;;;;;;;48.75;36.00;;;;;;;;5036572;28;45477;-76
2022/03/08 00:02:54;;;;;;;;;42.25;36.50;;;;;;;;5021953;28;45538;-77
2022/03/08 00:05:20;;;;;;;;;46.75;35.75;;;;;;;;5031523;28;45518;-76
2022/03/08 00:07:46;;;;;;;;;40.50;33.75;;;;;;;;5032159;28;45786;-75
2022/03/08 00:10:12;;;;;;;;;42.25;38.50;;;;;;;;5022946;28;45325;-77
2022/03/08 00:12:38;;;;;;;;;44.00;38.50;;;;;;;;5035567;28;45418;-77
2022/03/08 00:15:05;;;;;;;;;42.50;35.25;;;;;;;;5035775;28;45986;-77
2022/03/08 00:17:30;;;;;;;;;37.25;32.75;;;;;;;;5035075;28;45431;-77
2022/03/08 00:19:55;;;;;;;;;36.25;33.75;;;;;;;;5034854;28;45316;-77
2022/03/08 00:22:21;;;;;;;;;47.25;36.75;;;;;;;;5034912;28;45461;-76
2022/03/08 00:24:46;;;;;;;;;46.50;37.75;;;;;;;;5035203;28;45951;-76
2022/03/08 00:27:11;;;;;;;;;47.75;38.25;;;;;;;;5035785;28;45349;-76
2022/03/08 00:29:37;;;;;;;;;41.50;33.75;;;;;;;;5034587;28;45656;-75
2022/03/08 00:32:02;;;;;;;;;49.00;35.75;;;;;;;;5034921;28;45473;-75
2022/03/08 00:34:27;;;;;;;;;46.50;30.50;;;;;;;;5034819;28;46821;-75
2022/03/08 00:36:53;;;;;;;;;48.25;37.25;;;;;;;;5035460;28;45233;-75
2022/03/08 00:39:18;;;;;;;;;31.25;27.00;;;;;;;;5035830;28;45395;-75
2022/03/08 00:41:44;;;;;;;;;40.50;38.00;;;;;;;;5035115;28;45338;-76
2022/03/08 00:44:09;;;;;;;;;43.75;36.25;;;;;;;;5028188;28;46148;-76
2022/03/08 00:46:34;;;;;;;;;42.50;37.75;;;;;;;;5023359;28;45343;-75
2022/03/08 00:49:00;;;;;;;;;41.25;36.00;;;;;;;;5020483;28;45375;-75
2022/03/08 00:51:25;;;;;;;;;46.50;36.25;;;;;;;;5034829;28;45300;-75
2022/03/08 00:53:50;;;;;;;;;41.50;38.00;;;;;;;;5035019;28;46508;-75
2022/03/08 00:56:16;;;;;;;;;40.00;36.75;;;;;;;;5034603;28;45448;-75
2022/03/08 00:58:41;;;;;;;;;42.00;37.75;;;;;;;;5034558;28;45462;-75
2022/03/08 01:01:06;;;;;;;;;40.25;33.25;;;;;;;;5034793;28;45390;-74
2022/03/08 01:03:32;;;;;;;;;45.50;39.00;;;;;;;;5034182;28;45586;-74
2022/03/08 01:05:57;;;;;;;;;49.25;39.75;;;;;;;;5035124;28;45379;-75
2022/03/08 01:08:22;;;;;;;;;48.00;39.50;;;;;;;;5034547;28;45482;-75
2022/03/08 01:10:47;;;;;;;;;47.25;38.75;;;;;;;;5016553;28;45542;-75
2022/03/08 01:13:13;;;;;;;;;49.50;37.50;;;;;;;;5034605;28;46877;-75
2022/03/08 01:15:38;;;;;;;;;50.75;40.50;;;;;;;;5016752;28;45380;-75
2022/03/08 01:18:03;;;;;;;;;47.25;39.25;;;;;;;;5035441;28;45271;-75
2022/03/08 01:20:29;;;;;;;;;42.50;29.75;;;;;;;;5034834;28;45447;-75
2022/03/08 01:22:54;;;;;;;;;44.50;37.00;;;;;;;;5034356;28;45396;-74
2022/03/08 01:25:22;;;;;;;;;47.00;38.00;;;;;;;;5016300;28;45503;-74
2022/03/08 01:27:48;;;;;;;;;42.25;35.50;;;;;;;;5034191;28;45363;-74
2022/03/08 01:30:15;;;;;;;;;51.50;40.25;;;;;;;;5034793;28;45390;-74
2022/03/08 01:32:40;;;;;;;;;46.50;39.00;;;;;;;;5033565;28;45490;-74
2022/03/08 01:35:06;;;;;;;;;48.75;38.50;;;;;;;;5033984;28;45496;-74
2022/03/08 01:37:31;;;;;;;;;47.50;37.75;;;;;;;;5034230;28;45534;-76
2022/03/08 01:39:56;;;;;;;;;42.00;36.50;;;;;;;;5034934;28;45735;-75
2022/03/08 01:42:23;;;;;;;;;53.00;39.50;;;;;;;;5036842;28;46338;-75
2022/03/08 01:44:48;;;;;;;;;40.00;36.50;;;;;;;;5038116;28;45403;-75
2022/03/08 01:47:14;;;;;;;;;42.25;35.75;;;;;;;;5037612;28;45361;-75
2022/03/08 01:49:40;;;;;;;;;39.00;36.00;;;;;;;;5037670;28;45470;-75
2022/03/08 01:52:05;;;;;;;;;41.00;36.50;;;;;;;;5037367;28;45375;-74
2022/03/08 01:54:31;;;;;;;;;44.25;39.00;;;;;;;;5037827;28;45548;-75
2022/03/08 01:56:56;;;;;;;;;47.50;39.75;;;;;;;;5038203;28;45462;-74
2022/03/08 01:59:21;;;;;;;;;41.50;38.50;;;;;;;;5037468;28;45402;-74
2022/03/08 02:01:46;;;;;;;;;48.00;37.75;;;;;;;;5036959;28;46279;-74
2022/03/08 02:04:12;;;;;;;;;46.75;36.50;;;;;;;;5037326;28;45497;-74
2022/03/08 02:06:37;;;;;;;;;41.50;39.00;;;;;;;;5037585;28;45378;-74
2022/03/08 02:09:03;;;;;;;;;43.75;39.25;;;;;;;;5038357;28;45567;-74
2022/03/08 02:11:29;;;;;;;;;40.50;36.75;;;;;;;;5037045;28;46133;-74
2022/03/08 02:13:55;;;;;;;;;52.00;37.25;;;;;;;;5037091;28;45615;-74
2022/03/08 02:16:20;;;;;;;;;45.00;37.00;;;;;;;;5036808;28;45379;-74
2022/03/08 02:18:46;;;;;;;;;48.75;37.00;;;;;;;;5036961;28;45534;-74
2022/03/08 02:21:11;;;;;;;;;46.75;38.50;;;;;;;;5037610;28;46243;-74
2022/03/08 02:23:36;;;;;;;;;44.00;37.00;;;;;;;;5036716;28;45386;-74
2022/03/08 02:26:02;;;;;;;;;41.75;33.75;;;;;;;;5036876;28;45693;-74
2022/03/08 02:28:28;;;;;;;;;46.50;36.25;;;;;;;;5036676;28;45411;-73
2022/03/08 02:30:54;;;;;;;;;47.75;38.00;;;;;;;;5021232;28;46521;-75
2022/03/08 02:33:19;;;;;;;;;43.50;36.50;;;;;;;;5037642;28;45312;-74
2022/03/08 02:35:44;;;;;;;;;46.00;37.50;;;;;;;;5037130;28;45457;-75
2022/03/08 02:38:10;;;;;;;;;49.00;39.00;;;;;;;;5036853;28;45522;-74
2022/03/08 02:40:36;;;;;;;;;47.00;37.00;;;;;;;;5036562;28;46759;-74
2022/03/08 02:43:03;;;;;;;;;43.75;37.25;;;;;;;;5036699;28;45553;-74
2022/03/08 02:45:29;;;;;;;;;52.67;43.33;;;;;;;;5021200;28;45380;-75
2022/03/08 02:47:54;;;;;;;;;48.25;39.25;;;;;;;;5037202;28;45427;-73
2022/03/08 02:50:19;;;;;;;;;44.00;37.75;;;;;;;;5036260;28;46363;-75
2022/03/08 02:52:47;;;;;;;;;46.50;39.75;;;;;;;;5035694;28;45490;-74
2022/03/08 02:55:12;;;;;;;;;44.50;37.75;;;;;;;;5036639;28;45533;-73
2022/03/08 02:57:38;;;;;;;;;47.75;38.75;;;;;;;;5018431;28;45424;-74
2022/03/08 03:00:06;;;;;;;;;46.50;39.75;;;;;;;;5036880;28;46697;-73
2022/03/08 03:02:31;;;;;;;;;55.50;40.25;;;;;;;;5036077;28;45237;-74
2022/03/08 03:04:56;;;;;;;;;40.75;36.50;;;;;;;;5036354;28;45266;-73
2022/03/08 03:07:22;;;;;;;;;50.00;39.25;;;;;;;;5036301;28;45391;-75
2022/03/08 03:09:48;;;;;;;;;41.75;37.00;;;;;;;;5036272;28;45220;-75
2022/03/08 03:12:13;;;;;;;;;43.50;37.50;;;;;;;;5039431;28;46856;-75
2022/03/08 03:14:38;;;;;;;;;44.00;39.25;;;;;;;;5036880;28;45253;-75
2022/03/08 03:17:03;;;;;;;;;37.50;31.25;;;;;;;;5036957;28;45686;-75
2022/03/08 03:19:28;;;;;;;;;55.75;39.50;;;;;;;;5036235;28;46869;-75
2022/03/08 03:21:54;;;;;;;;;44.75;37.50;;;;;;;;5018252;28;45538;-75
2022/03/08 03:24:19;;;;;;;;;38.75;36.25;;;;;;;;5021224;28;45380;-75
2022/03/08 03:26:44;;;;;;;;;56.25;38.25;;;;;;;;5035666;28;45616;-75
2022/03/08 03:29:09;;;;;;;;;42.75;37.25;;;;;;;;5036455;28;46243;-75
2022/03/08 03:31:35;;;;;;;;;52.50;41.50;;;;;;;;5036299;28;45315;-74
2022/03/08 03:34:00;;;;;;;;;45.50;38.75;;;;;;;;5036302;28;45328;-74
2022/03/08 03:36:25;;;;;;;;;47.33;40.00;;;;;;;;5036280;28;45438;-75
2022/03/08 03:38:51;;;;;;;;;44.00;37.75;;;;;;;;5036382;28;46092;-74
2022/03/08 03:41:16;;;;;;;;;41.25;34.00;;;;;;;;5035630;28;45494;-72
2022/03/08 03:43:41;;;;;;;;;48.25;40.50;;;;;;;;5035747;28;47163;-74
2022/03/08 03:46:07;;;;;;;;;42.67;36.33;;;;;;;;5035890;28;45221;-75
2022/03/08 03:48:33;;;;;;;;;51.00;43.33;;;;;;;;5017852;28;48327;-75
2022/03/08 03:50:58;;;;;;;;;50.25;38.75;;;;;;;;5035827;28;45286;-75
2022/03/08 03:53:23;;;;;;;;;52.75;40.00;;;;;;;;5027591;28;45495;-75
2022/03/08 03:55:48;;;;;;;;;41.75;36.75;;;;;;;;5028006;28;45454;-74
2022/03/08 03:58:13;;;;;;;;;52.75;41.50;;;;;;;;5035325;28;46581;-76
2022/03/08 04:00:39;;;;;;;;;46.75;39.50;;;;;;;;5035508;28;45261;-75
2022/03/08 04:03:04;;;;;;;;;47.25;37.75;;;;;;;;5022333;28;45289;-74
2022/03/08 04:05:29;;;;;;;;;41.50;33.25;;;;;;;;5033349;28;45326;-75
2022/03/08 04:07:54;;;;;;;;;44.25;37.50;;;;;;;;5035242;28;47091;-74
2022/03/08 04:10:20;;;;;;;;;43.00;37.75;;;;;;;;5035073;28;45253;-74
2022/03/08 04:12:45;;;;;;;;;50.25;40.50;;;;;;;;5035262;28;45306;-74
2022/03/08 04:15:10;;;;;;;;;53.75;41.50;;;;;;;;5035457;28;45851;-74
2022/03/08 04:17:36;;;;;;;;;47.50;39.25;;;;;;;;5034419;28;47053;-74
2022/03/08 04:20:02;;;;;;;;;44.50;35.25;;;;;;;;5034558;28;45515;-74
2022/03/08 04:22:27;;;;;;;;;46.00;37.25;;;;;;;;5035034;28;45343;-74
2022/03/08 04:24:53;;;;;;;;;38.50;34.75;;;;;;;;5034590;28;45379;-74
2022/03/08 04:27:19;;;;;;;;;47.25;40.00;;;;;;;;5035603;28;46051;-74
2022/03/08 04:29:44;;;;;;;;;40.50;33.25;;;;;;;;5035023;28;45505;-74
2022/03/08 04:32:09;;;;;;;;;43.25;37.75;;;;;;;;5034999;28;45430;-73
2022/03/08 04:34:34;;;;;;;;;50.00;40.25;;;;;;;;5035035;28;45465;-75
2022/03/08 04:36:59;;;;;;;;;43.50;35.50;;;;;;;;5034656;28;46867;-75
2022/03/08 04:39:25;;;;;;;;;42.50;36.50;;;;;;;;5034616;28;45345;-75
2022/03/08 04:41:50;;;;;;;;;53.00;42.67;;;;;;;;5022997;28;45498;-75
2022/03/08 04:44:15;;;;;;;;;57.33;42.67;;;;;;;;5012654;28;45418;-75
2022/03/08 04:46:40;;;;;;;;;49.25;39.25;;;;;;;;5034159;28;46268;-75
2022/03/08 04:49:06;;;;;;;;;46.00;39.50;;;;;;;;5034319;28;45402;-74
2022/03/08 04:51:31;;;;;;;;;52.50;39.75;;;;;;;;5018107;28;45403;-75
2022/03/08 04:53:56;;;;;;;;;43.00;35.75;;;;;;;;5034677;28;45388;-72
2022/03/08 04:56:21;;;;;;;;;51.75;39.75;;;;;;;;5034739;28;45473;-75
2022/03/08 04:58:47;;;;;;;;;52.50;40.25;;;;;;;;5034263;28;45317;-75
2022/03/08 05:01:13;;;;;;;;;42.25;33.50;;;;;;;;5034787;28;45447;-75
2022/03/08 05:03:38;;;;;;;;;47.00;42.00;;;;;;;;5034638;28;45408;-75
2022/03/08 05:06:04;;;;;;;;;52.67;42.67;;;;;;;;5034634;28;45387;-74
2022/03/08 05:08:30;;;;;;;;;44.00;35.67;;;;;;;;5033556;28;45224;-74
2022/03/08 05:10:55;;;;;;;;;50.67;41.00;;;;;;;;5033968;28;45488;-74
2022/03/08 05:13:20;;;;;;;;;54.25;41.75;;;;;;;;5033880;28;45533;-74
2022/03/08 05:15:48;;;;;;;;;47.33;40.00;;;;;;;;5033388;28;46288;-73
2022/03/08 05:18:13;;;;;;;;;39.50;37.75;;;;;;;;5034062;28;45540;-75
2022/03/08 05:20:39;;;;;;;;;52.50;43.50;;;;;;;;5023451;28;45561;-75
2022/03/08 05:23:04;;;;;;;;;49.67;38.67;;;;;;;;5028048;28;45286;-75
2022/03/08 05:25:29;;;;;;;;;57.67;42.00;;;;;;;;5033382;28;46814;-75
2022/03/08 05:27:55;;;;;;;;;53.00;43.00;;;;;;;;5015566;28;45508;-74
2022/03/08 05:30:20;;;;;;;;;48.00;39.00;;;;;;;;5033893;28;45272;-74
2022/03/08 05:32:45;;;;;;;;;57.25;42.50;;;;;;;;5033368;28;45360;-74
2022/03/08 05:35:11;;;;;;;;;46.67;40.33;;;;;;;;5033570;28;45253;-75
2022/03/08 05:37:36;;;;;;;;;56.33;42.67;;;;;;;;5032620;28;45379;-74
2022/03/08 05:40:02;;;;;;;;;61.67;47.33;;;;;;;;5033242;28;45343;-75
2022/03/08 05:42:27;;;;;;;;;48.67;41.33;;;;;;;;5033200;28;45367;-75
2022/03/08 05:44:52;;;;;;;;;55.25;43.25;;;;;;;;5033635;28;45296;-75
2022/03/08 05:47:18;;;;;;;;;47.25;41.00;;;;;;;;5033288;28;45405;-75
2022/03/08 05:49:43;;;;;;;;;46.25;39.75;;;;;;;;5033876;28;45424;-75
2022/03/08 05:52:08;;;;;;;;;46.25;40.00;;;;;;;;5032752;28;45667;-74
2022/03/08 05:54:33;;;;;;;;;51.75;41.00;;;;;;;;5033398;28;46309;-75
2022/03/08 05:56:59;;;;;;;;;57.67;45.67;;;;;;;;5033702;28;45329;-74
2022/03/08 05:59:24;;;;;;;;;48.50;42.00;;;;;;;;5015089;28;45524;-76
2022/03/08 06:01:49;;;;;;;;;59.00;41.67;;;;;;;;5014421;28;45232;-75
2022/03/08 06:04:14;;;;;;;;;56.33;44.33;;;;;;;;5032346;28;45422;-75
2022/03/08 06:06:39;;;;;;;;;44.33;39.67;;;;;;;;5032503;28;45494;-75
2022/03/08 06:09:05;;;;;;;;;50.25;39.50;;;;;;;;5032846;28;45396;-74
2022/03/08 06:11:30;;;;;;;;;44.33;34.67;;;;;;;;5032591;28;45328;-76
2022/03/08 06:13:55;;;;;;;;;52.67;38.00;;;;;;;;5032252;28;45449;-75
2022/03/08 06:16:20;;;;;;;;;39.00;33.25;;;;;;;;5032257;28;45328;-74
2022/03/08 06:18:45;;;;;;;;;55.33;44.33;;;;;;;;5032451;28;45541;-74
2022/03/08 06:21:11;;;;;;;;;50.00;41.33;;;;;;;;5032573;28;45368;-76
2022/03/08 06:23:36;;;;;;;;;52.67;41.00;;;;;;;;5031938;28;45537;-74
2022/03/08 06:26:01;;;;;;;;;47.67;41.00;;;;;;;;5032458;28;45304;-74
2022/03/08 06:28:26;;;;;;;;;58.00;41.33;;;;;;;;5014649;28;45438;-76
2022/03/08 06:30:52;;;;;;;;;53.00;41.25;;;;;;;;5035258;28;45357;-76
2022/03/08 06:33:17;;;;;;;;;49.67;41.00;;;;;;;;5035847;28;47606;-80
2022/03/08 06:35:42;;;;;;;;;57.33;43.33;;;;;;;;5035192;28;45522;-75
2022/03/08 06:38:07;;;;;;;;;57.33;44.33;;;;;;;;5029154;28;45301;-77
2022/03/08 06:40:33;;;;;;;;;47.67;40.67;;;;;;;;5025552;28;45397;-77
2022/03/08 06:42:58;;;;;;;;;54.33;45.67;;;;;;;;5035110;28;46095;-79
2022/03/08 06:45:24;;;;;;;;;54.00;41.00;;;;;;;;5035213;28;45621;-76
2022/03/08 06:47:49;;;;;;;;;49.67;41.00;;;;;;;;5034855;28;45513;-76
2022/03/08 06:50:14;;;;;;;;;49.00;44.00;;;;;;;;5034188;28;45400;-76
2022/03/08 06:52:40;;;;;;;;;50.33;40.33;;;;;;;;5016304;28;47275;-77
2022/03/08 06:55:05;;;;;;;;;48.00;42.33;;;;;;;;5034773;28;47270;-76
2022/03/08 06:57:30;;;;;;;;;59.33;46.67;;;;;;;;5034582;28;45369;-76
2022/03/08 06:59:56;;;;;;;;;55.33;45.33;;;;;;;;5035504;28;45555;-76
2022/03/08 07:02:21;;;;;;;;;55.00;44.33;;;;;;;;5034882;28;45447;-76
2022/03/08 07:04:46;;;;;;;;;54.75;38.50;;;;;;;;5034339;28;45335;-76
2022/03/08 07:07:12;;;;;;;;;52.00;39.00;;;;;;;;5034114;28;45418;-75
2022/03/08 07:09:38;;;;;;;;;56.00;44.00;;;;;;;;5034062;28;45422;-76
2022/03/08 07:12:03;;;;;;;;;54.25;42.50;;;;;;;;5034267;28;46178;-76
2022/03/08 07:14:28;;;;;;;;;52.75;41.00;;;;;;;;5033978;28;45415;-77
2022/03/08 07:16:54;;;;;;;;;55.00;44.33;;;;;;;;5030073;28;45522;-76
2022/03/08 07:19:19;;;;;;;;;55.75;43.25;;;;;;;;5022126;28;45551;-76
2022/03/08 07:21:45;;;;;;;;;69.67;49.67;;;;;;;;5034302;28;46349;-78
2022/03/08 07:24:11;;;;;;;;;63.00;47.33;;;;;;;;5034987;28;45383;-80
2022/03/08 07:26:36;;;;;;;;;54.25;42.25;;;;;;;;5034772;28;45371;-78
2022/03/08 07:29:01;;;;;;;;;51.00;41.00;;;;;;;;5034664;28;45297;-76
2022/03/08 07:31:26;;;;;;;;;56.25;43.50;;;;;;;;5033989;28;46072;-76
2022/03/08 07:33:52;;;;;;;;;54.33;40.00;;;;;;;;5018202;28;45515;-78
2022/03/08 07:36:17;;;;;;;;;57.75;44.75;;;;;;;;5035841;28;45271;-78
2022/03/08 07:38:43;;;;;;;;;49.75;40.25;;;;;;;;5035978;28;45563;-78
2022/03/08 07:41:08;;;;;;;;;55.00;44.67;;;;;;;;5035043;28;46161;-78
2022/03/08 07:43:36;;;;;;;;;55.50;41.75;;;;;;;;5034577;28;45573;-78
2022/03/08 07:46:02;;;;;;;;;57.75;46.00;;;;;;;;5017632;28;45358;-77
2022/03/08 07:48:28;;;;;;;;;52.50;42.50;;;;;;;;5034856;28;45234;-76
2022/03/08 07:50:53;;;;;;;;;61.33;46.33;;;;;;;;5035156;28;45395;-76
2022/03/08 07:53:18;;;;;;;;;56.33;46.00;;;;;;;;5028455;28;45444;-77
2022/03/08 07:55:44;;;;;;;;;54.75;44.50;;;;;;;;5023969;28;45289;-76
2022/03/08 07:58:12;;;;;;;;;59.75;44.50;;;;;;;;5003710;28;45595;-77
2022/03/08 08:00:38;;;;;;;;;60.50;44.50;;;;;;;;5034069;28;46308;-77
2022/03/08 08:03:03;;;;;;;;;54.00;41.75;;;;;;;;5035105;28;45295;-77
2022/03/08 08:05:29;;;;;;;;;60.33;48.33;;;;;;;;5034551;28;45395;-77
2022/03/08 08:07:54;;;;;;;;;54.25;41.75;;;;;;;;5034689;28;45453;-77
2022/03/08 08:10:19;;;;;;;;;52.25;37.00;;;;;;;;5033941;28;46898;-77
2022/03/08 08:12:45;;;;;;;;;55.50;45.75;;;;;;;;5034591;28;45375;-76
2022/03/08 08:15:11;;;;;;;;;57.25;42.25;;;;;;;;5035182;28;45320;-78
2022/03/08 08:17:36;;;;;;;;;47.25;39.75;;;;;;;;5034323;28;45355;-77
2022/03/08 08:20:02;;;;;;;;;56.50;44.50;;;;;;;;5034065;28;45337;-77
2022/03/08 08:22:27;;;;;;;;;53.75;41.25;;;;;;;;5033804;28;45449;-77
2022/03/08 08:24:53;;;;;;;;;53.00;40.00;;;;;;;;5034146;28;45484;-77
2022/03/08 08:27:18;;;;;;;;;60.75;43.25;;;;;;;;5019220;28;45382;-77
2022/03/08 08:29:43;;;;;;;;;54.50;43.00;;;;;;;;5033580;28;46493;-77
2022/03/08 08:32:08;;;;;;;;;61.25;44.25;;;;;;;;5033087;28;45390;-77
2022/03/08 08:34:34;;;;;;;;;52.00;43.00;;;;;;;;5031581;28;45359;-76
2022/03/08 08:36:59;;;;;;;;;56.50;43.00;;;;;;;;5018719;28;45338;-75
2022/03/08 08:39:24;;;;;;;;;51.00;41.75;;;;;;;;5033415;28;47120;-76
2022/03/08 08:41:49;;;;;;;;;53.00;41.00;;;;;;;;5033324;28;45438;-77
2022/03/08 08:44:15;;;;;;;;;54.75;43.50;;;;;;;;5033327;28;45430;-76
2022/03/08 08:46:40;;;;;;;;;53.00;41.00;;;;;;;;5032778;28;45550;-77
2022/03/08 08:49:05;;;;;;;;;51.25;43.75;;;;;;;;5033155;28;46228;-76
2022/03/08 08:51:31;;;;;;;;;56.50;43.00;;;;;;;;5031440;28;45535;-77
2022/03/08 08:53:56;;;;;;;;;57.75;45.50;;;;;;;;5033824;28;45360;-75
2022/03/08 08:56:21;;;;;;;;;54.50;43.25;;;;;;;;5015053;28;47441;-76
2022/03/08 08:58:47;;;;;;;;;49.75;38.25;;;;;;;;5029936;28;46914;-77
2022/03/08 09:01:12;;;;;;;;;57.75;46.75;;;;;;;;5019891;28;45549;-76
2022/03/08 09:03:37;;;;;;;;;52.75;41.00;;;;;;;;5032515;28;45561;-76
2022/03/08 09:06:02;;;;;;;;;56.75;45.50;;;;;;;;5033321;28;45490;-76
2022/03/08 09:08:28;;;;;;;;;53.75;43.00;;;;;;;;5032584;28;45509;-76
2022/03/08 09:10:53;;;;;;;;;54.75;44.25;;;;;;;;5032566;28;45473;-77
2022/03/08 09:13:19;;;;;;;;;51.75;41.00;;;;;;;;5032662;28;45509;-77
2022/03/08 09:15:45;;;;;;;;;58.00;44.50;;;;;;;;5016623;28;45521;-76
2022/03/08 09:18:10;;;;;;;;;52.00;42.00;;;;;;;;5033175;28;47254;-76
2022/03/08 09:20:35;;;;;;;;;64.00;48.75;;;;;;;;5013976;28;46004;-77
2022/03/08 09:23:01;;;;;;;;;59.25;46.00;;;;;;;;5032524;28;45567;-75
2022/03/08 09:25:26;;;;;;;;;64.50;47.75;;;;;;;;5032442;28;45339;-78
2022/03/08 09:27:51;;;;;;;;;55.25;44.00;;;;;;;;5032369;28;45371;-75
2022/03/08 09:30:16;;;;;;;;;60.00;48.00;;;;;;;;5032833;28;45427;-76
2022/03/08 09:32:42;;;;;;;;;52.75;43.00;;;;;;;;5032622;28;45462;-77
2022/03/08 09:35:07;;;;;;;;;53.00;44.50;;;;;;;;5032288;28;45270;-76
2022/03/08 09:37:33;;;;;;;;;57.00;47.00;;;;;;;;5032372;28;45546;-77
2022/03/08 09:39:58;;;;;;;;;58.75;46.75;;;;;;;;5032012;28;45309;-76
2022/03/08 09:42:24;;;;;;;;;54.75;43.50;;;;;;;;5032795;28;45317;-76
2022/03/08 09:44:49;;;;;;;;;58.25;44.00;;;;;;;;5020782;28;45497;-77
2022/03/08 09:47:15;;;;;;;;;53.00;41.25;;;;;;;;5027818;28;46076;-77
2022/03/08 09:49:41;;;;;;;;;53.50;40.75;;;;;;;;5031312;28;45457;-76
2022/03/08 09:52:06;;;;;;;;;55.00;43.75;;;;;;;;5031563;28;45543;-76
2022/03/08 09:54:31;;;;;;;;;58.00;45.75;;;;;;;;5016009;28;45317;-76
2022/03/08 09:56:56;;;;;;;;;52.75;44.75;;;;;;;;5032154;28;45481;-75
2022/03/08 09:59:22;;;;;;;;;55.75;46.50;;;;;;;;5035132;28;45383;-85
2022/03/08 10:01:48;;;;;;;;;62.00;47.25;;;;;;;;5037075;28;45521;-88
2022/03/08 10:04:16;;;;;;;;;59.50;46.50;;;;;;;;5045002;28;44806;-86
2022/03/08 10:06:42;;;;;;;;;55.25;44.00;;;;;;;;5044523;28;46194;-84
2022/03/08 10:09:12;;;;;;;;;57.50;45.50;;;;;;;;5042729;28;45384;-87
2022/03/08 10:11:37;;;;;;;;;51.75;41.00;;;;;;;;5044174;28;45420;-86
2022/03/08 10:14:03;;;;;;;;;59.00;42.25;;;;;;;;5038980;28;45304;-85
2022/03/08 10:16:42;;;;;;;;;54.75;43.50;;;;;;;;5038405;28;46941;-85
2022/03/08 10:19:08;;;;;;;;;55.75;45.25;;;;;;;;5024313;28;45458;-85
2022/03/08 10:21:37;;;;;;;;;52.25;41.50;;;;;;;;5038766;28;45362;-85
2022/03/08 10:24:03;;;;;;;;;49.75;39.25;;;;;;;;5037592;28;45337;-85
2022/03/08 10:26:29;;;;;;;;;57.00;43.50;;;;;;;;5039208;28;46233;-84
2022/03/08 10:28:55;;;;;;;;;58.00;43.00;;;;;;;;5039685;28;45330;-85
2022/03/08 10:31:21;;;;;;;;;50.00;42.25;;;;;;;;5040888;28;45608;-84
2022/03/08 10:33:47;;;;;;;;;50.00;41.50;;;;;;;;5044960;28;44887;-85
2022/03/08 10:36:15;;;;;;;;;55.25;42.00;;;;;;;;5039726;28;45296;-86
2022/03/08 10:39:00;;;;;;;;;52.00;43.25;;;;;;;;5038212;28;45285;-86
2022/03/08 10:41:26;;;;;;;;;53.25;43.75;;;;;;;;5036986;28;45374;-85
2022/03/08 10:43:51;;;;;;;;;53.50;42.50;;;;;;;;5039754;28;45451;-85
2022/03/08 10:46:16;;;;;;;;;53.25;40.50;;;;;;;;5039285;28;45566;-85
2022/03/08 10:48:42;;;;;;;;;56.25;43.25;;;;;;;;5001837;28;45417;-83
2022/03/08 10:51:12;;;;;;;;;65.00;49.75;;;;;;;;5024448;28;45388;-84
2022/03/08 10:53:38;;;;;;;;;59.00;45.75;;;;;;;;5037043;28;45493;-84
2022/03/08 10:56:03;;;;;;;;;53.25;45.25;;;;;;;;5031934;28;46247;-83
2022/03/08 10:58:28;;;;;;;;;53.25;42.50;;;;;;;;4988705;28;45479;-84
2022/03/08 11:00:54;;;;;;;;;48.50;39.50;;;;;;;;5003358;28;45329;-84
2022/03/08 11:03:21;;;;;;;;;54.00;40.25;;;;;;;;5019276;28;45623;-83
2022/03/08 11:05:47;;;;;;;;;60.00;46.75;;;;;;;;5036815;28;46213;-84
2022/03/08 11:08:13;;;;;;;;;56.00;46.00;;;;;;;;5036678;28;45180;-85
2022/03/08 11:10:38;;;;;;;;;48.75;40.50;;;;;;;;5014124;28;45272;-85
2022/03/08 11:13:05;;;;;;;;;50.25;41.75;;;;;;;;5037901;28;45389;-85
2022/03/08 11:15:31;;;;;;;;;50.75;42.25;;;;;;;;5037848;28;46605;-85
2022/03/08 11:17:57;;;;;;;;;21.25;18.25;;;;;;;;5038443;28;45533;-84
2022/03/08 11:20:24;;;;;;;;;52.25;44.00;;;;;;;;5030076;28;45556;-85
2022/03/08 11:22:51;;;;;;;;;50.25;43.25;;;;;;;;5026757;28;45448;-84
2022/03/08 11:25:17;;;;;;;;;57.00;45.00;;;;;;;;5024596;28;46696;-84
2022/03/08 11:27:43;;;;;;;;;53.25;41.75;;;;;;;;5037164;28;45360;-84
2022/03/08 11:30:13;;;;;;;;;56.25;45.00;;;;;;;;5038472;28;45436;-84
2022/03/08 11:32:46;;;;;;;;;46.75;37.00;;;;;;;;5037172;28;45460;-84
2022/03/08 11:35:14;;;;;;;;;55.25;44.25;;;;;;;;5030209;28;45459;-86
2022/03/08 11:37:40;;;;;;;;;52.50;41.50;;;;;;;;5028315;28;45288;-85
2022/03/08 11:40:12;;;;;;;;;53.50;40.75;;;;;;;;5037527;28;45428;-85
2022/03/08 11:42:41;;;;;;;;;38.75;34.25;;;;;;;;5021875;28;45295;-85
2022/03/08 11:45:27;;;;;;;;;54.00;44.25;;;;;;;;5026823;28;45664;-85
2022/03/08 11:48:00;;;;;;;;;50.75;43.00;;;;;;;;5041893;28;45233;-85
2022/03/08 11:50:29;;;;;;;;;53.50;42.25;;;;;;;;5038496;28;45439;-85
2022/03/08 11:53:06;;;;;;;;;49.75;41.25;;;;;;;;5036877;28;45488;-83
2022/03/08 11:55:44;;;;;;;;;63.00;48.50;;;;;;;;5040058;28;46720;-84
2022/03/08 11:58:16;;;;;;;;;49.75;41.00;;;;;;;;5022669;28;45422;-84
2022/03/08 12:00:49;;;;;;;;;54.50;41.00;;;;;;;;5036328;28;45365;-81
2022/03/08 12:03:35;;;;;;;;;48.00;39.50;;;;;;;;5036316;28;45296;-83
2022/03/08 12:06:06;;;;;;;;;55.00;44.50;;;;;;;;5022653;28;46941;-84
2022/03/08 12:08:31;;;;;;;;;51.50;39.25;;;;;;;;5032787;28;45305;-84
2022/03/08 12:11:01;;;;;;;;;49.50;40.75;;;;;;;;5035646;28;45367;-84
2022/03/08 12:13:29;;;;;;;;;53.75;43.50;;;;;;;;5011906;28;45630;-85
2022/03/08 12:16:17;;;;;;;;;46.00;37.75;;;;;;;;5032985;28;46745;-84
2022/03/08 12:18:53;;;;;;;;;47.75;39.25;;;;;;;;5017841;28;45647;-86
2022/03/08 12:21:21;;;;;;;;;57.50;47.00;;;;;;;;5043594;28;45632;-86
2022/03/08 12:23:49;;;;;;;;;42.00;35.25;;;;;;;;5029118;28;45691;-84
2022/03/08 12:26:27;;;;;;;;;49.25;38.50;;;;;;;;5032448;28;46224;-83
2022/03/08 12:29:13;;;;;;;;;50.25;39.75;;;;;;;;5028707;28;45373;-83
2022/03/08 12:31:57;;;;;;;;;48.25;40.00;;;;;;;;4944843;28;45633;-83
2022/03/08 12:34:39;;;;;;;;;47.50;39.50;;;;;;;;4954755;28;45409;-84
2022/03/08 12:37:10;;;;;;;;;43.00;34.75;;;;;;;;4940776;28;47307;-86
2022/03/08 12:39:47;;;;;;;;;39.25;34.00;;;;;;;;4956309;28;45528;-89
2022/03/08 12:42:16;;;;;;;;;39.00;33.50;;;;;;;;4952443;28;45424;-92
2022/03/08 12:44:52;;;;;;;;;42.25;35.75;;;;;;;;4956596;28;45390;-87
2022/03/08 12:47:17;;;;;;;;;43.75;36.75;;;;;;;;4955528;28;46646;-89
2022/03/08 12:49:42;;;;;;;;;33.25;32.25;;;;;;;;4953195;28;45437;-87
2022/03/08 12:52:08;;;;;;;;;42.00;34.25;;;;;;;;4938299;28;45391;-87
2022/03/08 12:54:35;;;;;;;;;40.25;35.25;;;;;;;;4953300;28;46031;-85
2022/03/08 12:57:01;;;;;;;;;39.00;33.75;;;;;;;;4952182;28;45416;-85
2022/03/08 12:59:26;;;;;;;;;54.00;42.50;;;;;;;;4952410;28;45459;-86
2022/03/08 13:01:51;;;;;;;;;44.75;36.75;;;;;;;;4953891;28;45436;-86
2022/03/08 13:04:25;;;;;;;;;41.25;34.50;;;;;;;;4953099;28;46550;-82
2022/03/08 13:07:09;;;;;;;;;48.25;37.50;;;;;;;;4952441;28;46170;-85
2022/03/08 13:09:56;;;;;;;;;43.25;35.25;;;;;;;;5001609;28;45328;-85
2022/03/08 13:12:33;;;;;;;;;32.50;27.00;;;;;;;;5033556;28;45470;-86
2022/03/08 13:15:13;;;;;;;;;36.50;30.50;;;;;;;;5018955;28;45614;-86
2022/03/08 13:17:38;;;;;;;;;36.00;32.50;;;;;;;;5032045;28;46883;-85
2022/03/08 13:20:04;;;;;;;;;43.75;36.00;;;;;;;;5032298;28;45496;-84
2022/03/08 13:22:29;;;;;;;;;30.50;29.00;;;;;;;;5032454;28;45428;-84
2022/03/08 13:25:11;;;;;;;;;32.00;28.50;;;;;;;;5032736;28;45360;-85
2022/03/08 13:27:55;;;;;;;;;31.25;28.50;;;;;;;;5032260;28;46662;-85
2022/03/08 13:30:37;;;;;;;;;41.75;32.25;;;;;;;;5017839;28;45336;-84
2022/03/08 13:33:09;;;;;;;;;37.75;33.00;;;;;;;;5019221;28;45427;-85
2022/03/08 13:35:35;;;;;;;;;32.75;27.50;;;;;;;;5029566;28;45420;-84
2022/03/08 13:38:00;;;;;;;;;37.75;33.25;;;;;;;;5035492;28;45435;-85
2022/03/08 13:40:29;;;;;;;;;42.75;34.50;;;;;;;;5039439;28;45627;-85
2022/03/08 13:42:58;;;;;;;;;39.50;33.25;;;;;;;;5024257;28;45447;-85
2022/03/08 13:45:23;;;;;;;;;41.25;34.75;;;;;;;;5023517;28;45277;-85
2022/03/08 13:47:55;;;;;;;;;35.00;31.00;;;;;;;;5026569;28;45222;-85
2022/03/08 13:50:21;;;;;;;;;35.25;32.00;;;;;;;;5034800;28;45520;-85
2022/03/08 13:53:06;;;;;;;;;31.50;29.00;;;;;;;;5038531;28;45319;-85
2022/03/08 13:55:32;;;;;;;;;29.75;29.00;;;;;;;;5046217;28;45321;-86
2022/03/08 13:58:01;;;;;;;;;28.75;27.75;;;;;;;;5038520;28;46962;-85
2022/03/08 14:00:27;;;;;;;;;33.75;30.75;;;;;;;;5039455;28;45438;-86
2022/03/08 14:02:54;;;;;;;;;29.50;26.75;;;;;;;;5039024;28;45420;-86
2022/03/08 14:05:19;;;;;;;;;36.25;30.75;;;;;;;;5038041;28;45383;-86
2022/03/08 14:07:53;;;;;;;;;39.50;32.75;;;;;;;;5019864;28;46241;-84
2022/03/08 14:10:20;;;;;;;;;42.00;34.50;;;;;;;;5041396;28;45467;-84
2022/03/08 14:12:46;;;;;;;;;40.00;31.50;;;;;;;;5057526;28;45086;-85